createdAt,value
2019-04-16T00:01:50.880Z,4.53
2019-04-16T00:07:08.434Z,4.70
2019-04-16T00:12:27.251Z,4.73
2019-04-16T00:17:26.900Z,4.60
2019-04-16T00:22:32.487Z,4.33
2019-04-16T00:27:32.067Z,4.57
2019-04-16T00:32:32.687Z,4.37
2019-04-16T00:37:32.235Z,5.30
2019-04-16T00:42:31.776Z,5.00
2019-04-16T00:47:31.328Z,4.13
2019-04-16T00:52:30.898Z,3.47
2019-04-16T00:57:30.454Z,5.50
2019-04-16T01:02:29.993Z,4.70
2019-04-16T01:07:29.538Z,4.70
2019-04-16T01:12:29.160Z,4.77
2019-04-16T01:17:28.706Z,4.53
2019-04-16T01:22:28.234Z,4.23
2019-04-16T01:27:34.102Z,4.77
2019-04-16T01:32:51.748Z,4.10
2019-04-16T01:38:10.489Z,4.90
2019-04-16T01:43:10.043Z,4.57
2019-04-16T01:48:10.653Z,4.83
2019-04-16T01:53:10.233Z,4.80
2019-04-16T01:58:09.789Z,3.90
2019-04-16T02:03:09.347Z,6.17
2019-04-16T02:08:08.891Z,6.03
2019-04-16T02:13:09.458Z,4.80
2019-04-16T02:18:10.232Z,7.13
2019-04-16T02:23:13.467Z,6.53
2019-04-16T02:28:12.098Z,7.23
2019-04-16T02:33:11.654Z,6.63
2019-04-16T02:38:13.211Z,6.57
2019-04-16T02:43:12.463Z,6.40
2019-04-16T02:48:16.617Z,6.93
2019-04-16T02:53:39.770Z,6.83
2019-04-16T02:58:46.315Z,6.80
2019-04-16T03:03:50.408Z,5.80
2019-04-16T03:08:50.068Z,8.07
2019-04-16T03:13:52.418Z,5.43
2019-04-16T03:18:55.828Z,6.00
2019-04-16T03:23:55.438Z,5.67
2019-04-16T03:28:55.671Z,6.83
2019-04-16T03:33:56.234Z,7.27
2019-04-16T03:38:55.822Z,6.17
2019-04-16T03:43:55.434Z,7.87
2019-04-16T03:48:56.068Z,7.87
2019-04-16T03:53:56.493Z,6.83
2019-04-16T03:58:56.245Z,7.47
2019-04-16T04:03:57.529Z,7.30
2019-04-16T04:08:57.953Z,7.20
2019-04-16T04:13:57.499Z,7.50
2019-04-16T04:18:57.824Z,7.50
2019-04-16T04:24:00.826Z,6.80
2019-04-16T04:28:59.620Z,6.50
2019-04-16T04:33:59.255Z,6.90
2019-04-16T04:38:58.794Z,6.97
2019-04-16T04:44:04.032Z,10.60
2019-04-16T04:49:00.271Z,7.73
2019-04-16T04:54:00.094Z,6.83
2019-04-16T04:59:02.382Z,8.27
2019-04-16T05:04:27.097Z,6.90
2019-04-16T05:09:29.218Z,7.50
2019-04-16T05:14:27.890Z,7.83
2019-04-16T05:19:28.515Z,8.07
2019-04-16T05:24:29.209Z,7.10
2019-04-16T05:29:29.466Z,7.03
2019-04-16T05:34:29.023Z,7.43
2019-04-16T05:39:29.038Z,7.60
2019-04-16T05:44:33.200Z,7.03
2019-04-16T05:49:29.826Z,8.07
2019-04-16T05:54:44.517Z,7.37
2019-04-16T05:59:43.846Z,7.73
2019-04-16T06:04:43.402Z,8.90
2019-04-16T06:09:44.482Z,8.57
2019-04-16T06:14:53.916Z,7.10
2019-04-16T06:20:10.601Z,7.00
2019-04-16T06:25:28.527Z,8.00
2019-04-16T06:30:37.369Z,8.40
2019-04-16T06:36:01.054Z,8.20
2019-04-16T06:41:04.266Z,7.83
2019-04-16T06:46:19.609Z,8.20
2019-04-16T06:51:44.751Z,7.60
2019-04-16T06:56:56.280Z,8.40
2019-04-16T07:02:27.576Z,8.83
2019-04-16T07:07:46.933Z,7.40
2019-04-16T07:12:48.017Z,8.30
2019-04-16T07:17:47.858Z,7.67
2019-04-16T07:22:47.389Z,8.90
2019-04-16T07:28:03.915Z,7.83
2019-04-16T07:33:24.906Z,9.30
2019-04-16T07:38:43.642Z,6.50
2019-04-16T07:44:08.095Z,7.70
2019-04-16T07:49:14.434Z,6.90
2019-04-16T07:54:27.702Z,7.30
2019-04-16T07:59:32.015Z,8.13
2019-04-16T08:04:29.224Z,6.20
2019-04-16T08:09:30.056Z,8.47
2019-04-16T08:14:29.826Z,7.30
2019-04-16T08:19:36.694Z,8.73
2019-04-16T08:24:34.624Z,6.63
2019-04-16T08:29:34.203Z,6.80
2019-04-16T08:34:35.001Z,7.40
2019-04-16T08:39:36.841Z,6.47
2019-04-16T08:44:36.464Z,6.50
2019-04-16T08:49:36.297Z,6.17
2019-04-16T08:54:35.886Z,7.30
2019-04-16T08:59:35.690Z,7.13
2019-04-16T09:04:35.384Z,7.83
2019-04-16T09:09:49.887Z,6.43
2019-04-16T09:14:55.980Z,5.23
2019-04-16T09:19:57.701Z,5.90
2019-04-16T09:25:13.588Z,6.57
2019-04-16T09:30:37.072Z,5.27
2019-04-16T09:35:44.929Z,6.10
2019-04-16T09:40:54.902Z,6.00
2019-04-16T09:45:54.452Z,5.97
2019-04-16T09:50:55.083Z,7.67
2019-04-16T09:55:54.653Z,7.00
2019-04-16T10:01:02.695Z,7.00
2019-04-16T10:06:05.321Z,7.53
2019-04-16T10:11:06.044Z,6.63
2019-04-16T10:16:05.588Z,6.50
2019-04-16T10:21:05.485Z,7.47
2019-04-16T10:26:05.365Z,7.00
2019-04-16T10:31:04.941Z,7.87
2019-04-16T10:36:06.001Z,7.07
2019-04-16T10:41:19.363Z,6.80
2019-04-16T10:46:25.541Z,5.70
2019-04-16T10:52:02.691Z,6.40
2019-04-16T10:57:10.326Z,6.40
2019-04-16T11:02:43.946Z,5.80
2019-04-16T11:07:44.930Z,5.70
2019-04-16T11:12:44.903Z,5.90
2019-04-16T11:17:45.658Z,6.80
2019-04-16T11:22:45.227Z,6.53
2019-04-16T11:27:44.791Z,6.70
2019-04-16T11:32:44.416Z,5.60
2019-04-16T11:37:44.774Z,7.37
2019-04-16T11:42:45.462Z,6.30
2019-04-16T11:47:48.029Z,6.87
2019-04-16T11:52:46.280Z,6.40
2019-04-16T11:57:46.016Z,6.90
2019-04-16T12:03:03.654Z,6.73
2019-04-16T12:08:29.917Z,6.63
2019-04-16T12:13:48.156Z,7.73
2019-04-16T12:19:12.692Z,6.27
2019-04-16T12:24:28.049Z,8.10
2019-04-16T12:29:41.668Z,6.43
2019-04-16T12:34:57.926Z,5.93
2019-04-16T12:40:10.179Z,7.20
2019-04-16T12:45:38.957Z,6.73
2019-04-16T12:50:59.923Z,6.47
2019-04-16T12:56:17.542Z,6.13
2019-04-16T13:01:33.378Z,6.50
2019-04-16T13:06:59.565Z,6.73
2019-04-16T13:12:21.318Z,5.80
2019-04-16T13:17:41.711Z,5.00
2019-04-16T13:22:45.545Z,5.30
2019-04-16T13:27:47.851Z,6.20
2019-04-16T13:32:46.718Z,5.63
2019-04-16T13:37:46.273Z,5.60
2019-04-16T13:42:45.807Z,6.03
2019-04-16T13:47:46.486Z,5.80
2019-04-16T13:52:46.521Z,6.37
2019-04-16T13:57:58.794Z,5.47
2019-04-16T14:03:02.283Z,7.30
2019-04-16T14:08:01.841Z,7.63
2019-04-16T14:13:01.390Z,7.20
2019-04-16T14:18:01.361Z,6.27
2019-04-16T14:23:00.981Z,7.00
2019-04-16T14:28:03.111Z,6.33
2019-04-16T14:33:02.064Z,5.83
2019-04-16T14:38:01.739Z,6.13
2019-04-16T14:43:01.286Z,6.67
2019-04-16T14:48:00.937Z,6.53
2019-04-16T14:53:00.538Z,5.90
2019-04-16T14:58:10.532Z,5.67
2019-04-16T15:03:31.981Z,5.90
2019-04-16T15:08:37.330Z,6.30
2019-04-16T15:13:43.191Z,6.53
2019-04-16T15:19:00.523Z,5.90
2019-04-16T15:24:21.458Z,5.80
2019-04-16T15:29:47.333Z,5.27
2019-04-16T15:34:48.151Z,6.20
2019-04-16T15:39:54.321Z,5.20
2019-04-16T15:44:58.058Z,5.20
2019-04-16T15:50:11.085Z,5.30
2019-04-16T15:55:29.847Z,6.40
2019-04-16T16:00:53.751Z,5.30
2019-04-16T16:05:58.310Z,7.00
2019-04-16T16:11:00.367Z,7.53
2019-04-16T16:15:59.955Z,6.80
2019-04-16T16:20:59.518Z,6.90
2019-04-16T16:26:00.129Z,8.03
2019-04-16T16:30:59.683Z,8.33
2019-04-16T16:36:00.735Z,7.60
2019-04-16T16:41:00.768Z,7.70
2019-04-16T16:46:31.826Z,7.13
2019-04-16T16:51:31.453Z,8.27
2019-04-16T16:56:46.745Z,7.57
2019-04-16T17:02:08.843Z,8.07
2019-04-16T17:07:07.194Z,8.07
2019-04-16T17:12:08.840Z,8.50
2019-04-16T17:17:14.172Z,8.13
2019-04-16T17:22:14.674Z,7.83
2019-04-16T17:27:14.068Z,7.77
2019-04-16T17:32:15.163Z,7.60
2019-04-16T17:37:14.993Z,6.90
2019-04-16T17:42:15.213Z,8.17
2019-04-16T17:47:32.108Z,9.07
2019-04-16T17:52:29.518Z,8.50
2019-04-16T17:57:47.145Z,7.70
2019-04-16T18:02:54.727Z,8.37
2019-04-16T18:08:03.716Z,8.13
2019-04-16T18:13:08.778Z,7.43
2019-04-16T18:18:19.253Z,7.57
2019-04-16T18:23:30.782Z,8.40
2019-04-16T18:28:35.474Z,8.10
2019-04-16T18:33:42.792Z,7.77
2019-04-16T18:39:03.963Z,9.90
2019-04-16T18:44:29.326Z,8.90
2019-04-16T18:49:29.451Z,9.00
2019-04-16T18:54:29.039Z,8.90
2019-04-16T18:59:28.660Z,7.83
2019-04-16T19:04:28.194Z,8.10
2019-04-16T19:09:27.761Z,9.90
2019-04-16T19:14:27.434Z,7.40
2019-04-16T19:19:27.259Z,8.13
2019-04-16T19:24:28.068Z,6.60
2019-04-16T19:29:27.840Z,7.60
2019-04-16T19:34:27.476Z,6.97
2019-04-16T19:39:27.094Z,8.90
2019-04-16T19:44:27.408Z,7.80
2019-04-16T19:49:27.088Z,7.40
2019-04-16T19:54:26.730Z,7.50
2019-04-16T19:59:26.372Z,6.77
2019-04-16T20:04:25.935Z,7.33
2019-04-16T20:09:25.558Z,6.77
2019-04-16T20:14:25.576Z,6.97
2019-04-16T20:19:25.157Z,7.30
2019-04-16T20:24:24.769Z,6.40
2019-04-16T20:29:24.448Z,7.17
2019-04-16T20:34:24.193Z,8.07
2019-04-16T20:39:23.739Z,7.70
2019-04-16T20:44:24.243Z,7.17
2019-04-16T20:49:23.862Z,11.40
2019-04-16T20:54:24.142Z,8.83
2019-04-16T20:59:23.743Z,6.73
2019-04-16T21:04:23.377Z,7.60
2019-04-16T21:09:22.924Z,7.00
2019-04-16T21:14:22.769Z,8.00
2019-04-16T21:19:24.637Z,8.40
2019-04-16T21:24:24.217Z,7.40
2019-04-16T21:29:33.294Z,7.30
2019-04-16T21:34:36.903Z,7.53
2019-04-16T21:39:41.870Z,7.30
2019-04-16T21:44:44.545Z,6.70
2019-04-16T21:49:45.829Z,8.10
2019-04-16T21:54:44.034Z,7.90
2019-04-16T21:59:43.646Z,6.60
2019-04-16T22:04:45.438Z,8.50
2019-04-16T22:09:44.582Z,7.27
2019-04-16T22:14:44.165Z,8.03
2019-04-16T22:19:53.861Z,6.70
2019-04-16T22:24:44.967Z,8.50
2019-04-16T22:29:47.213Z,8.40
2019-04-16T22:34:45.775Z,7.87
2019-04-16T22:40:10.565Z,6.30
2019-04-16T22:45:29.301Z,7.40
2019-04-16T22:50:28.882Z,8.23
2019-04-16T22:55:28.442Z,8.03
2019-04-16T23:00:34.194Z,7.57
2019-04-16T23:05:33.750Z,8.30
2019-04-16T23:10:33.328Z,7.53
2019-04-16T23:15:33.439Z,8.27
2019-04-16T23:20:36.118Z,7.90
2019-04-16T23:25:34.270Z,7.50
2019-04-16T23:30:33.837Z,7.83
2019-04-16T23:35:33.399Z,7.63
2019-04-16T23:40:32.959Z,8.20
2019-04-16T23:45:44.185Z,7.03
2019-04-16T23:50:49.469Z,7.37
2019-04-16T23:55:59.777Z,7.93
